Kofu, Japan

7:17 PM JST on August 28, 2015 (GMT +0900)
IYAMANAS2 | | Change Station
CLOSE
Current Station
Personal Weather Station
Location: Chuo, YAMANASHI
Elevation: 820 ft
Nearby Weather Stations

Elev 820 ft 35.59 °N, 138.52 °E | Updated 8 minutes ago

Overcast
Overcast
76.6 °F
Feels Like 78 °F
N
0.0
Wind Variable Wind from WSW
Gusts 0.0 mph

Today
High -- | Low -- °F
--% Chance of Precip.
Yesterday
High -- | Low -- °F
Precip. -- in
5:14 AM 6:19 PM
Waxing Gibbous, 97% visible
Pressure 29.97 in
Visibility 10.0 miles
Clouds Few 600 ft
Overcast 1900 ft
Heat Index 78 °F
Dew Point 50 °F
Humidity 40%
Rainfall 0.00 in
Snow Depth Not available.
UV 0 out of 12
Pollen Not available.
Air Quality Not available.
Flu Activity Not available.
METAR RJTY 280958Z AUTO 02005KT 10SM FEW006 OVC019 20/20 A2997 RMK AO2 DZE47 SLP148 P0000 T02020197
Pressure 29.97 in
Visibility 10.0 miles
Clouds Few 600 ft
Overcast 1900 ft
Heat Index 78 °F
Dew Point 50 °F
Humidity 40%
Rainfall 0.00 in
Snow Depth Not available.
UV 0 out of 12
Pollen Not available.
Air Quality Not available.
Flu Activity Not available.
METAR RJTY 280958Z AUTO 02005KT 10SM FEW006 OVC019 20/20 A2997 RMK AO2 DZE47 SLP148 P0000 T02020197

10-Day Weather Forecast

×

Almanac

Astronomy

Aug. 28, 2015 Rise Set
Actual Time
Civil Twilight
Nautical Twilight
Astronomical Twilight
Moon
Length of Visible Light
Length of Day
Tomorrow will be .
, % of the Moon is Illuminated

Today's Extremes

Country Highs Country Lows

Community

WunderPhotos

Upload Photos

1,850,355 photos uploaded!

WunderBlogs® & News

Nearby

Air Quality

  Air Quality AQ Index Pollutant
Not available.

Snow Depth

Station Depth Elevation

Earthquake Activity

City Distance Mag. Time & Date
Minimum magnitude displayed is 2.5.

Coastal Water Temperatures

Place Temperature

Stations

Nearby Weather Stations

Station Location Temp. Windchill Dew Point Humidity Wind Precip. Elev Updated Type